Time;durP1;ratioP1;P1;durP2;ratioP2;P2;SDS_P1;SDS_P2;PMS_P1;PMS_P2;Temp;Humidity;BMP_temperature;BMP_pressure;BME280_temperature;BME280_humidity;BME280_pressure;Samples;Min_cycle;Max_cycle;Signal;HPM_P1;HPM_P2
2021/06/21 00:07:12;;;;;;;8.90;7.03;;;;;;;23.42;98.86;99936.13;715863;1201;115211;-71
2021/06/21 00:22:15;;;;;;;10.58;7.95;;;;;;;23.34;99.54;99925.72;715516;1202;114286;-72
2021/06/21 00:37:17;;;;;;;10.70;7.80;;;;;;;23.17;100.00;99924.75;715812;1205;113454;-70
2021/06/21 00:52:21;;;;;;;10.47;7.87;;;;;;;23.06;100.00;99900.36;715836;1203;114106;-70
2021/06/21 01:07:24;;;;;;;9.75;8.53;;;;;;;22.95;100.00;99877.09;715673;1204;115112;-70
2021/06/21 01:22:41;;;;;;;9.28;7.93;;;;;;;22.81;100.00;99867.61;715820;1202;115214;-70
2021/06/21 01:37:46;;;;;;;10.08;8.30;;;;;;;22.68;100.00;99853.36;715799;1205;114533;-70
2021/06/21 01:52:56;;;;;;;12.17;9.23;;;;;;;22.62;100.00;99858.79;715848;1205;114432;-72
2021/06/21 02:08:00;;;;;;;13.33;9.10;;;;;;;22.44;100.00;99879.16;715699;1202;114470;-71
2021/06/21 02:23:03;;;;;;;9.75;8.80;;;;;;;22.42;100.00;99874.04;715764;1202;113972;-71
2021/06/21 02:38:05;;;;;;;9.80;8.80;;;;;;;22.43;100.00;99866.83;715724;1200;115555;-71
2021/06/21 02:53:15;;;;;;;13.48;9.20;;;;;;;22.37;100.00;99886.41;715519;1202;115147;-71
2021/06/21 03:08:19;;;;;;;10.65;8.80;;;;;;;22.46;100.00;99906.45;715652;1200;116090;-71
2021/06/21 03:23:23;;;;;;;10.80;8.90;;;;;;;22.68;100.00;99898.00;715798;1177;113959;-75
2021/06/21 03:38:29;;;;;;;10.70;9.60;;;;;;;22.71;100.00;99916.25;715900;1202;114516;-73
2021/06/21 03:53:31;;;;;;;10.08;8.95;;;;;;;22.99;100.00;99925.56;719893;1205;115647;-73
2021/06/21 04:08:33;;;;;;;11.27;9.73;;;;;;;23.38;100.00;99934.92;715598;1200;115210;-73
2021/06/21 04:23:35;;;;;;;10.43;8.73;;;;;;;23.81;100.00;99932.21;715787;1202;115434;-74
2021/06/21 04:38:38;;;;;;;10.80;9.35;;;;;;;24.26;100.00;99940.53;715947;1202;114081;-74
2021/06/21 04:53:40;;;;;;;11.63;8.68;;;;;;;24.75;100.00;99950.97;715652;1177;114024;-71
2021/06/21 05:08:42;;;;;;;14.23;8.40;;;;;;;25.25;100.00;99962.12;717274;1167;113887;-79
2021/06/21 05:23:45;;;;;;;10.83;8.00;;;;;;;25.68;100.00;99966.13;713048;1206;115322;-78
2021/06/21 05:38:47;;;;;;;15.65;8.48;;;;;;;26.15;100.00;99940.00;713348;1192;113984;-77
2021/06/21 05:53:49;;;;;;;13.77;8.13;;;;;;;26.65;100.00;99925.59;713524;1203;114418;-78
2021/06/21 06:08:51;;;;;;;11.53;7.47;;;;;;;27.33;99.51;99910.97;713587;1201;115492;-78
2021/06/21 06:23:53;;;;;;;10.18;6.60;;;;;;;27.77;96.26;99891.14;713521;1205;114277;-77
2021/06/21 06:38:55;;;;;;;12.68;5.35;;;;;;;28.19;91.65;99885.77;713761;1202;114394;-75
2021/06/21 06:54:05;;;;;;;10.10;5.23;;;;;;;28.60;88.89;99887.00;713766;1191;113830;-74
2021/06/21 07:09:08;;;;;;;8.58;5.90;;;;;;;29.26;86.00;99883.69;713947;1202;115429;-74
2021/06/21 07:24:11;;;;;;;6.60;4.40;;;;;;;29.69;83.16;99876.10;719267;1202;114504;-75
2021/06/21 07:39:13;;;;;;;7.00;4.38;;;;;;;30.32;81.95;99888.38;713520;1203;113741;-74
2021/06/21 07:54:16;;;;;;;7.35;4.98;;;;;;;30.73;79.13;99892.02;713553;1202;115121;-74
2021/06/21 08:09:19;;;;;;;8.67;3.77;;;;;;;31.47;74.88;99870.37;713513;1202;114167;-74
2021/06/21 08:24:21;;;;;;;4.50;3.43;;;;;;;32.21;70.54;99866.67;713498;1202;114580;-74
2021/06/21 08:39:23;;;;;;;11.45;3.20;;;;;;;32.32;65.57;99855.40;712522;1177;113982;-74
2021/06/21 08:54:25;;;;;;;4.93;2.78;;;;;;;33.14;60.88;99858.84;712777;1203;113810;-73
2021/06/21 09:09:34;;;;;;;5.17;2.60;;;;;;;33.60;56.93;99861.89;713107;1203;114148;-75
2021/06/21 09:24:39;;;;;;;7.10;2.70;;;;;;;33.62;56.53;99848.81;713447;1203;115275;-76
2021/06/21 09:39:43;;;;;;;9.83;3.00;;;;;;;34.08;53.72;99850.66;713750;1202;113713;-74
2021/06/21 09:54:45;;;;;;;5.17;2.47;;;;;;;33.91;52.97;99842.31;713519;1205;114223;-75
2021/06/21 10:09:52;;;;;;;7.03;2.40;;;;;;;34.29;52.25;99826.55;713573;1205;113720;-75
2021/06/21 10:24:57;;;;;;;12.25;3.30;;;;;;;34.82;51.39;99821.57;713848;1205;114775;-75
2021/06/21 10:40:02;;;;;;;7.45;3.10;;;;;;;35.28;52.96;99817.72;713650;1206;114287;-74
2021/06/21 10:55:26;;;;;;;;;;;;;;;35.35;50.72;99811.84;713472;1207;114267;-74
2021/06/21 11:10:29;;;;;;;12.13;2.73;;;;;;;35.60;50.49;99796.70;712406;1203;100694;-74
2021/06/21 11:25:47;;;;;;;8.53;2.58;;;;;;;36.20;49.16;99791.73;712712;1203;114655;-74
2021/06/21 11:41:23;;;;;;;11.87;2.73;;;;;;;36.43;48.64;99786.17;712332;1205;113961;-76
2021/06/21 11:56:26;;;;;;;8.40;3.80;;;;;;;36.25;48.99;99761.55;712702;1178;113795;-73
2021/06/21 12:11:30;;;;;;;11.70;3.45;;;;;;;36.21;49.86;99752.40;714404;1203;113661;-75
2021/06/21 12:26:37;;;;;;;8.60;2.60;;;;;;;36.67;49.16;99722.05;712353;1202;113967;-74
2021/06/21 12:41:39;;;;;;;22.08;3.70;;;;;;;36.77;47.68;99702.56;712252;1205;115915;-77
2021/06/21 12:56:47;;;;;;;9.48;2.35;;;;;;;36.31;46.09;99689.30;712996;1206;114928;-77
2021/06/21 13:12:07;;;;;;;9.33;2.53;;;;;;;36.42;46.09;99672.62;712745;1203;114146;-77
2021/06/21 13:27:31;;;;;;;9.25;2.60;;;;;;;36.81;45.68;99662.56;713189;1205;114521;-76
2021/06/21 13:42:37;;;;;;;12.60;2.90;;;;;;;36.99;45.75;99655.10;714131;1202;115110;-72
2021/06/21 13:57:42;;;;;;;14.45;2.33;;;;;;;36.61;46.36;99637.55;713961;1205;113890;-75
2021/06/21 14:12:45;;;;;;;6.30;2.20;;;;;;;36.60;46.41;99632.42;713895;1202;115288;-75
2021/06/21 14:27:48;;;;;;;6.07;2.80;;;;;;;36.75;46.47;99642.00;713849;1205;113633;-73
2021/06/21 14:42:50;;;;;;;6.60;2.10;;;;;;;36.12;46.51;99645.16;713859;1204;114350;-76
2021/06/21 14:57:52;;;;;;;13.60;2.55;;;;;;;36.01;46.44;99657.55;714107;1202;115092;-76
2021/06/21 15:12:56;;;;;;;14.13;3.73;;;;;;;35.41;46.66;99640.77;713958;1178;113762;-76
2021/06/21 15:27:58;;;;;;;7.93;3.70;;;;;;;35.41;47.35;99644.31;713636;1202;114739;-78
2021/06/21 15:43:00;;;;;;;7.65;2.10;;;;;;;35.40;46.94;99650.09;718736;1202;113983;-75
2021/06/21 15:58:09;;;;;;;9.50;4.90;;;;;;;35.39;47.31;99646.53;714417;1202;114072;-77
2021/06/21 16:13:13;;;;;;;8.58;3.03;;;;;;;34.65;47.10;99643.33;714554;1202;116008;-76
2021/06/21 16:28:16;;;;;;;6.40;2.90;;;;;;;34.41;47.89;99621.11;713592;1202;114036;-76
2021/06/21 16:43:18;;;;;;;10.50;2.25;;;;;;;33.92;48.07;99629.04;714087;1202;114504;-77
2021/06/21 16:58:20;;;;;;;7.25;2.35;;;;;;;33.63;49.21;99641.10;715082;1205;115205;-76
2021/06/21 17:13:22;;;;;;;5.50;2.60;;;;;;;33.23;50.24;99654.39;714398;1181;113870;-76
2021/06/21 17:28:25;;;;;;;5.83;2.00;;;;;;;32.62;51.43;99657.11;713835;1203;113789;-76
2021/06/21 17:43:27;;;;;;;3.80;1.90;;;;;;;32.17;52.50;99674.64;713997;1202;114177;-75
2021/06/21 17:58:29;;;;;;;5.83;2.43;;;;;;;31.71;53.64;99683.39;714007;1203;114600;-76
2021/06/21 18:13:32;;;;;;;8.00;2.40;;;;;;;31.06;55.04;99673.03;713984;1206;114343;-76
2021/06/21 18:28:35;;;;;;;4.77;1.67;;;;;;;30.49;56.26;99670.83;713899;1177;113379;-77
2021/06/21 18:43:37;;;;;;;7.05;2.68;;;;;;;29.83;57.73;99657.41;713821;1203;114260;-75
2021/06/21 18:58:39;;;;;;;3.45;2.23;;;;;;;29.26;58.69;99677.59;713803;1189;113485;-75
2021/06/21 19:13:42;;;;;;;7.70;2.60;;;;;;;28.84;59.42;99683.08;714040;1203;113492;-76
2021/06/21 19:28:44;;;;;;;8.75;2.03;;;;;;;28.27;60.69;99684.94;714004;1205;113634;-73
2021/06/21 19:43:46;;;;;;;3.63;2.03;;;;;;;27.85;61.76;99686.69;713874;1206;113488;-75
2021/06/21 19:58:52;;;;;;;8.10;2.40;;;;;;;27.43;62.39;99678.72;713885;1202;115039;-73
2021/06/21 20:13:55;;;;;;;7.58;2.30;;;;;;;26.97;64.44;99679.22;713526;1203;114603;-74
2021/06/21 20:28:57;;;;;;;4.00;3.00;;;;;;;26.91;64.75;99697.22;716955;1202;113906;-73
2021/06/21 20:43:59;;;;;;;4.90;2.63;;;;;;;26.65;65.51;99699.66;714859;1177;113488;-74
2021/06/21 20:59:02;;;;;;;4.13;2.85;;;;;;;26.24;67.33;99685.85;714311;1177;114290;-73
2021/06/21 21:14:04;;;;;;;6.70;3.30;;;;;;;25.90;68.49;99667.19;714495;1188;112964;-74
2021/06/21 21:29:06;;;;;;;9.55;2.80;;;;;;;25.77;69.51;99659.52;714253;1202;114848;-73
2021/06/21 21:44:08;;;;;;;6.53;2.80;;;;;;;25.49;70.86;99658.66;713954;1200;114090;-73
2021/06/21 21:59:11;;;;;;;8.23;3.13;;;;;;;25.11;72.71;99652.21;714111;1200;114074;-74
2021/06/21 22:14:13;;;;;;;4.18;3.30;;;;;;;24.91;74.45;99665.06;714064;1205;113584;-73
2021/06/21 22:29:15;;;;;;;4.53;3.45;;;;;;;24.50;76.22;99661.71;714093;1202;114182;-74
2021/06/21 22:44:20;;;;;;;9.68;3.70;;;;;;;24.20;78.68;99651.28;713889;1202;114665;-73
2021/06/21 22:59:22;;;;;;;8.75;3.85;;;;;;;24.15;79.74;99641.30;713855;1177;114782;-73
2021/06/21 23:14:24;;;;;;;6.75;3.48;;;;;;;23.94;80.80;99645.47;713929;1178;113597;-74
2021/06/21 23:29:27;;;;;;;6.58;3.55;;;;;;;23.71;81.54;99631.05;714114;1202;113554;-73
2021/06/21 23:44:29;;;;;;;14.43;4.30;;;;;;;23.66;83.35;99636.31;713899;1206;114386;-73
2021/06/21 23:59:31;;;;;;;9.70;4.00;;;;;;;23.57;84.51;99635.89;713939;1203;114720;-74
